Time;durP1;ratioP1;P1;durP2;ratioP2;P2;SDS_P1;SDS_P2;PMS_P1;PMS_P2;Temp;Humidity;BMP_temperature;BMP_pressure;BME280_temperature;BME280_humidity;BME280_pressure;Samples;Min_cycle;Max_cycle;Signal;HPM_P1;HPM_P2
2021/09/05 00:02:22;;;;;;;2.90;2.58;;;20.30;96.70;;;;;;5052417;28;20025;-84
2021/09/05 00:04:48;;;;;;;2.15;2.00;;;20.20;95.90;;;;;;5054074;28;20496;-84
2021/09/05 00:07:14;;;;;;;1.42;1.33;;;20.10;95.80;;;;;;5053715;28;20508;-79
2021/09/05 00:09:41;;;;;;;1.75;1.65;;;20.20;96.50;;;;;;5053161;28;20362;-79
2021/09/05 00:12:07;;;;;;;1.90;1.80;;;20.20;96.20;;;;;;5053432;28;20408;-81
2021/09/05 00:14:33;;;;;;;1.77;1.67;;;20.20;95.70;;;;;;5071938;28;20627;-80
2021/09/05 00:17:00;;;;;;;2.35;1.80;;;19.60;92.70;;;;;;5073688;28;20032;-87
2021/09/05 00:19:26;;;;;;;2.10;1.98;;;19.60;93.90;;;;;;5073367;28;20025;-84
2021/09/05 00:21:52;;;;;;;1.50;1.40;;;19.80;93.20;;;;;;5072143;28;20021;-81
2021/09/05 00:24:18;;;;;;;2.00;1.90;;;20.10;95.20;;;;;;5073336;28;20029;-80
2021/09/05 00:26:47;;;;;;;2.67;2.47;;;19.90;96.00;;;;;;5073353;28;20021;-86
2021/09/05 00:29:16;;;;;;;2.22;2.03;;;19.80;96.90;;;;;;5073152;28;20115;-88
2021/09/05 00:31:42;;;;;;;1.10;1.07;;;19.80;98.20;;;;;;5072580;28;20519;-80
2021/09/05 00:34:08;;;;;;;2.05;1.85;;;19.90;97.60;;;;;;5073724;28;20103;-80
2021/09/05 00:36:34;;;;;;;1.77;1.42;;;19.80;97.70;;;;;;5073515;28;20105;-85
2021/09/05 00:39:00;;;;;;;1.63;1.52;;;19.90;97.40;;;;;;5073129;28;20490;-82
2021/09/05 00:41:26;;;;;;;3.60;2.28;;;19.80;97.00;;;;;;5072733;28;20472;-81
2021/09/05 00:43:54;;;;;;;1.45;1.35;;;19.80;96.70;;;;;;5072069;28;20036;-87
2021/09/05 00:46:20;;;;;;;1.40;1.30;;;19.80;96.30;;;;;;5073079;28;20476;-84
2021/09/05 00:48:46;;;;;;;1.77;1.67;;;19.90;96.00;;;;;;5072641;28;20472;-80
2021/09/05 00:51:12;;;;;;;2.03;1.85;;;19.80;95.80;;;;;;5072927;28;20051;-81
2021/09/05 00:53:38;;;;;;;1.30;1.20;;;19.70;96.30;;;;;;5072971;28;20060;-83
2021/09/05 00:56:04;;;;;;;1.42;1.33;;;19.80;97.30;;;;;;5073141;28;20067;-80
2021/09/05 00:58:30;;;;;;;2.53;2.08;;;19.80;97.30;;;;;;5068114;28;20021;-84
2021/09/05 01:00:58;;;;;;;1.40;1.30;;;19.70;96.90;;;;;;5052855;28;20060;-85
2021/09/05 01:03:24;;;;;;;1.63;1.52;;;19.60;96.40;;;;;;5052975;28;20036;-80
2021/09/05 01:05:58;;;;;;;1.60;1.50;;;19.50;97.80;;;;;;5052347;28;20028;-81
2021/09/05 01:08:26;;;;;;;1.83;1.73;;;19.40;96.80;;;;;;5051683;28;20055;-82
2021/09/05 01:10:52;;;;;;;2.47;2.28;;;19.40;97.50;;;;;;5033012;28;20030;-85
2021/09/05 01:13:17;;;;;;;3.03;2.78;;;19.40;98.60;;;;;;5044853;28;20077;-79
2021/09/05 01:15:43;;;;;;;2.20;2.00;;;19.40;97.20;;;;;;5072164;28;20040;-81
2021/09/05 01:18:09;;;;;;;1.60;1.50;;;19.40;99.10;;;;;;5071819;28;20051;-82
2021/09/05 01:20:35;;;;;;;1.40;1.30;;;19.40;98.20;;;;;;5071674;28;20073;-81
2021/09/05 01:23:01;;;;;;;2.80;2.60;;;19.20;99.30;;;;;;5072044;28;20493;-82
2021/09/05 01:25:26;;;;;;;1.52;1.42;;;19.20;99.70;;;;;;5070101;28;20024;-82
2021/09/05 01:27:52;;;;;;;1.40;1.30;;;19.20;99.60;;;;;;5071547;28;20032;-84
2021/09/05 01:30:18;;;;;;;1.40;1.30;;;19.30;99.30;;;;;;5070673;28;20502;-88
2021/09/05 01:32:44;;;;;;;1.30;1.20;;;19.20;98.70;;;;;;5071730;28;20483;-88
2021/09/05 01:35:10;;;;;;;4.10;2.85;;;19.00;99.20;;;;;;5071464;28;20467;-83
2021/09/05 01:37:36;;;;;;;1.67;1.58;;;19.00;99.90;;;;;;5072858;28;20016;-80
2021/09/05 01:40:02;;;;;;;2.85;1.98;;;18.90;99.90;;;;;;5070364;28;20081;-82
2021/09/05 01:42:37;;;;;;;1.63;1.52;;;19.00;99.90;;;;;;5071509;28;20032;-82
2021/09/05 01:45:03;;;;;;;1.58;1.48;;;19.00;99.00;;;;;;5070428;28;20182;-82
2021/09/05 01:47:29;;;;;;;1.60;1.50;;;18.80;99.90;;;;;;5071323;28;20081;-83
2021/09/05 01:49:55;;;;;;;1.40;1.30;;;18.80;99.90;;;;;;5070791;28;20032;-83
2021/09/05 01:52:20;;;;;;;1.50;1.40;;;18.80;99.60;;;;;;5070220;28;20054;-82
2021/09/05 01:54:46;;;;;;;1.85;1.75;;;18.80;99.80;;;;;;5071765;28;20033;-83
2021/09/05 01:57:12;;;;;;;1.85;1.75;;;18.80;99.90;;;;;;5070450;28;20425;-83
2021/09/05 01:59:37;;;;;;;2.65;2.38;;;18.90;99.90;;;;;;5071151;28;20051;-82
2021/09/05 02:02:03;;;;;;;2.03;1.92;;;19.00;99.90;;;;;;5069660;28;20021;-83
2021/09/05 02:04:29;;;;;;;1.67;1.58;;;18.90;99.00;;;;;;5070840;28;20024;-83
2021/09/05 02:06:55;;;;;;;2.08;1.95;;;18.70;99.90;;;;;;5069491;28;20412;-83
2021/09/05 02:09:22;;;;;;;1.42;1.33;;;18.70;99.90;;;;;;5069857;28;20074;-81
2021/09/05 02:11:48;;;;;;;1.55;1.45;;;18.70;99.00;;;;;;5069366;28;20043;-84
2021/09/05 02:14:13;;;;;;;1.50;1.40;;;18.90;98.60;;;;;;5058462;28;20037;-80
2021/09/05 02:16:39;;;;;;;2.13;1.92;;;18.70;99.00;;;;;;5050375;28;20442;-82
2021/09/05 02:19:05;;;;;;;1.75;1.65;;;18.80;98.90;;;;;;5049926;28;20032;-80
2021/09/05 02:21:31;;;;;;;2.92;2.08;;;18.80;98.40;;;;;;5050193;28;20021;-83
2021/09/05 02:23:56;;;;;;;5.72;2.38;;;18.90;98.70;;;;;;5050721;28;20021;-79
2021/09/05 02:26:22;;;;;;;2.63;2.42;;;18.90;97.40;;;;;;5050438;28;20027;-83
2021/09/05 02:28:48;;;;;;;1.63;1.52;;;18.80;98.10;;;;;;5050291;28;20074;-83
2021/09/05 02:31:14;;;;;;;1.73;1.63;;;18.90;97.80;;;;;;5050029;28;20037;-82
2021/09/05 02:33:40;;;;;;;1.60;1.50;;;18.90;97.90;;;;;;5049740;28;20029;-82
2021/09/05 02:36:06;;;;;;;1.50;1.40;;;18.70;99.10;;;;;;5049174;28;20034;-82
2021/09/05 02:38:32;;;;;;;1.88;1.75;;;18.60;98.80;;;;;;5050285;28;20028;-80
2021/09/05 02:40:57;;;;;;;1.50;1.40;;;18.50;99.20;;;;;;5050300;28;20029;-82
2021/09/05 02:43:23;;;;;;;2.45;2.05;;;18.60;99.90;;;;;;5048898;28;20440;-80
2021/09/05 02:45:49;;;;;;;1.40;1.30;;;18.60;99.90;;;;;;5049202;28;20171;-80
2021/09/05 02:48:15;;;;;;;2.20;2.10;;;18.60;99.40;;;;;;5049943;28;20473;-79
2021/09/05 02:50:41;;;;;;;1.70;1.60;;;18.70;99.70;;;;;;5050205;28;20033;-79
2021/09/05 02:53:06;;;;;;;1.42;1.33;;;18.70;99.90;;;;;;5050312;28;20127;-80
2021/09/05 02:55:32;;;;;;;1.52;1.42;;;18.70;99.90;;;;;;5050487;28;20025;-79
2021/09/05 02:57:58;;;;;;;1.60;1.50;;;18.80;99.90;;;;;;5050944;28;20075;-81
2021/09/05 03:00:23;;;;;;;2.47;2.28;;;18.60;99.80;;;;;;5049400;28;20053;-83
2021/09/05 03:02:51;;;;;;;1.50;1.40;;;18.50;99.90;;;;;;5050198;28;20100;-80
2021/09/05 03:05:16;;;;;;;1.40;1.30;;;18.60;99.90;;;;;;5048504;28;20485;-80
2021/09/05 03:07:42;;;;;;;1.70;1.60;;;18.60;99.90;;;;;;5050365;28;20083;-79
2021/09/05 03:10:08;;;;;;;2.47;2.22;;;18.50;99.90;;;;;;5048353;28;20397;-83
2021/09/05 03:12:34;;;;;;;2.00;1.90;;;18.50;99.90;;;;;;5048835;28;20057;-82
2021/09/05 03:15:00;;;;;;;2.97;2.70;;;18.30;99.90;;;;;;5049927;28;20084;-82
2021/09/05 03:17:27;;;;;;;1.33;1.23;;;18.20;99.90;;;;;;5048929;28;20033;-81
2021/09/05 03:19:53;;;;;;;1.70;1.60;;;18.20;99.90;;;;;;5050497;28;20031;-81
2021/09/05 03:22:18;;;;;;;1.73;1.63;;;18.30;99.90;;;;;;5049622;28;20021;-80
2021/09/05 03:24:44;;;;;;;1.30;1.20;;;18.30;99.90;;;;;;5050159;28;20057;-80
2021/09/05 03:27:10;;;;;;;1.40;1.30;;;18.40;99.90;;;;;;5048784;28;20476;-82
2021/09/05 03:29:36;;;;;;;2.17;1.98;;;18.50;99.90;;;;;;5050385;28;20389;-83
2021/09/05 03:32:01;;;;;;;3.78;2.90;;;18.30;99.90;;;;;;5048578;28;20030;-82
2021/09/05 03:34:27;;;;;;;1.40;1.30;;;18.30;99.90;;;;;;5049955;28;20496;-82
2021/09/05 03:36:53;;;;;;;1.40;1.30;;;18.50;99.90;;;;;;5048311;28;20028;-81
2021/09/05 03:39:19;;;;;;;1.50;1.40;;;18.40;99.90;;;;;;5049724;28;20024;-82
2021/09/05 03:41:44;;;;;;;1.90;1.80;;;18.40;99.90;;;;;;5049442;28;20341;-83
2021/09/05 03:44:10;;;;;;;1.42;1.33;;;18.40;99.90;;;;;;5050833;28;20773;-81
2021/09/05 03:46:36;;;;;;;1.50;1.40;;;18.30;99.90;;;;;;5049641;28;20033;-81
2021/09/05 03:49:02;;;;;;;1.40;1.30;;;18.20;99.90;;;;;;5050028;28;20055;-81
2021/09/05 03:51:27;;;;;;;1.40;1.30;;;18.40;99.90;;;;;;5049518;28;20037;-82
2021/09/05 03:53:53;;;;;;;1.75;1.65;;;18.40;99.90;;;;;;5048155;28;20052;-82
2021/09/05 03:56:19;;;;;;;1.90;1.80;;;18.20;99.90;;;;;;5049592;28;20025;-84
2021/09/05 03:58:44;;;;;;;1.40;1.30;;;18.40;99.90;;;;;;5049329;28;20032;-81
2021/09/05 04:01:10;;;;;;;1.48;1.38;;;18.40;99.90;;;;;;5049337;28;20048;-83
2021/09/05 04:03:36;;;;;;;1.60;1.50;;;18.30;99.90;;;;;;5049020;28;20041;-84
2021/09/05 04:06:03;;;;;;;2.15;1.95;;;18.30;99.90;;;;;;5049480;28;20116;-82
2021/09/05 04:08:49;;;;;;;1.75;1.65;;;18.20;99.90;;;;;;5051985;28;20392;-81
2021/09/05 04:11:15;;;;;;;1.65;1.55;;;18.20;99.90;;;;;;5052234;28;20052;-82
2021/09/05 04:13:41;;;;;;;1.80;1.70;;;18.20;99.90;;;;;;5057641;28;20024;-80
2021/09/05 04:16:07;;;;;;;1.60;1.50;;;18.30;99.90;;;;;;5071638;28;20399;-81
2021/09/05 04:18:33;;;;;;;1.50;1.40;;;18.40;99.90;;;;;;5073069;28;20024;-81
2021/09/05 04:20:59;;;;;;;1.50;1.40;;;18.50;99.90;;;;;;5071931;28;20028;-79
2021/09/05 04:23:25;;;;;;;1.63;1.52;;;18.50;99.90;;;;;;5072874;28;20039;-79
2021/09/05 04:25:51;;;;;;;1.70;1.60;;;18.40;99.90;;;;;;5072942;28;20120;-81
2021/09/05 04:28:16;;;;;;;1.83;1.73;;;18.40;99.90;;;;;;5071446;28;20029;-81
2021/09/05 04:30:42;;;;;;;1.50;1.40;;;18.30;99.90;;;;;;5071335;28;20067;-79
2021/09/05 04:33:09;;;;;;;1.75;1.65;;;18.30;99.90;;;;;;5072623;28;20052;-79
2021/09/05 04:35:35;;;;;;;1.60;1.50;;;18.30;99.90;;;;;;5072692;28;20025;-81
2021/09/05 04:38:01;;;;;;;1.63;1.52;;;18.30;99.90;;;;;;5072702;28;20035;-82
2021/09/05 04:40:27;;;;;;;1.80;1.70;;;18.30;99.90;;;;;;5072655;28;20031;-81
2021/09/05 04:42:52;;;;;;;1.80;1.70;;;18.30;99.90;;;;;;5071322;28;20025;-80
2021/09/05 04:45:18;;;;;;;1.52;1.42;;;18.30;99.90;;;;;;5072722;28;20115;-80
2021/09/05 04:47:44;;;;;;;2.35;2.15;;;18.40;99.90;;;;;;5072542;28;20032;-79
2021/09/05 04:50:10;;;;;;;2.22;2.10;;;18.50;99.90;;;;;;5072514;28;20060;-81
2021/09/05 04:52:35;;;;;;;1.58;1.48;;;18.70;99.90;;;;;;5072452;28;20055;-82
2021/09/05 04:55:01;;;;;;;2.53;2.35;;;18.80;99.90;;;;;;5071953;28;20644;-81
2021/09/05 04:57:27;;;;;;;1.70;1.60;;;18.60;99.90;;;;;;5072092;28;20024;-81
2021/09/05 04:59:53;;;;;;;1.60;1.50;;;18.70;99.90;;;;;;5072142;28;20053;-81
2021/09/05 05:02:18;;;;;;;1.60;1.50;;;18.70;99.90;;;;;;5071976;28;20028;-80
2021/09/05 05:04:44;;;;;;;2.80;2.53;;;18.70;99.90;;;;;;5072030;28;20434;-80
2021/09/05 05:07:10;;;;;;;1.50;1.40;;;18.60;99.90;;;;;;5070961;28;20025;-80
2021/09/05 05:09:43;;;;;;;1.30;1.20;;;18.60;99.90;;;;;;5070477;28;20114;-80
2021/09/05 05:12:09;;;;;;;1.55;1.45;;;18.70;99.90;;;;;;5072158;28;20071;-83
2021/09/05 05:14:35;;;;;;;2.47;2.28;;;18.60;99.50;;;;;;5061337;28;20021;-80
2021/09/05 05:17:01;;;;;;;1.50;1.40;;;18.70;99.80;;;;;;5050393;28;20035;-79
2021/09/05 05:19:26;;;;;;;2.30;2.10;;;18.50;98.70;;;;;;5050283;28;20021;-83
2021/09/05 05:21:52;;;;;;;1.95;1.83;;;18.50;98.70;;;;;;5050201;28;20028;-81
2021/09/05 05:24:18;;;;;;;1.73;1.63;;;18.60;97.90;;;;;;5051853;28;20025;-82
2021/09/05 05:26:43;;;;;;;1.77;1.67;;;18.60;98.30;;;;;;5051470;28;20417;-82
2021/09/05 05:29:09;;;;;;;1.40;1.30;;;18.70;97.20;;;;;;5051688;28;20755;-87
2021/09/05 05:31:35;;;;;;;1.85;1.75;;;18.60;97.40;;;;;;5051427;28;20033;-82
2021/09/05 05:34:01;;;;;;;1.52;1.42;;;18.60;96.80;;;;;;5050130;28;20544;-80
2021/09/05 05:36:26;;;;;;;1.88;1.77;;;18.70;96.60;;;;;;5051787;28;20111;-80
2021/09/05 05:38:52;;;;;;;1.40;1.30;;;18.70;97.00;;;;;;5050207;28;20048;-80
2021/09/05 05:41:19;;;;;;;1.42;1.33;;;18.40;96.70;;;;;;5051061;28;20245;-80
2021/09/05 05:43:45;;;;;;;2.78;2.22;;;18.60;96.40;;;;;;5050045;28;20032;-80
2021/09/05 05:46:11;;;;;;;1.60;1.50;;;18.80;96.10;;;;;;5051734;28;20047;-80
2021/09/05 05:48:36;;;;;;;1.45;1.35;;;18.80;95.90;;;;;;5051048;28;20484;-82
2021/09/05 05:51:02;;;;;;;1.45;1.35;;;18.90;94.60;;;;;;5051068;28;20104;-80
2021/09/05 05:53:28;;;;;;;1.70;1.60;;;18.80;94.60;;;;;;5051184;28;20025;-80
2021/09/05 05:55:53;;;;;;;1.42;1.33;;;18.90;95.50;;;;;;5051057;28;20036;-81
2021/09/05 05:58:20;;;;;;;1.30;1.20;;;18.90;95.00;;;;;;5050742;28;20025;-80
2021/09/05 06:00:45;;;;;;;1.83;1.73;;;19.10;94.80;;;;;;5050769;28;20132;-81
2021/09/05 06:03:11;;;;;;;1.42;1.33;;;19.20;95.20;;;;;;5050886;28;20100;-84
2021/09/05 06:05:38;;;;;;;1.40;1.30;;;19.30;93.90;;;;;;5050840;28;20024;-83
2021/09/05 06:08:04;;;;;;;1.63;1.52;;;19.30;94.00;;;;;;5050561;28;20029;-80
2021/09/05 06:10:32;;;;;;;1.25;1.15;;;19.40;93.70;;;;;;5050585;28;20094;-81
2021/09/05 06:12:58;;;;;;;2.60;1.85;;;19.40;94.40;;;;;;5049041;28;20025;-80
2021/09/05 06:15:24;;;;;;;1.20;1.10;;;19.60;94.50;;;;;;5064369;28;20119;-81
2021/09/05 06:17:50;;;;;;;1.45;1.35;;;19.70;93.30;;;;;;5070479;28;20078;-81
2021/09/05 06:20:16;;;;;;;1.20;1.10;;;19.40;93.50;;;;;;5070493;28;20033;-83
2021/09/05 06:22:41;;;;;;;2.25;2.05;;;19.70;94.20;;;;;;5069295;28;20035;-79
2021/09/05 06:25:08;;;;;;;1.65;1.55;;;19.90;93.40;;;;;;5070263;28;20020;-79
2021/09/05 06:27:33;;;;;;;1.20;1.10;;;20.10;94.00;;;;;;5070013;28;20540;-80
2021/09/05 06:30:02;;;;;;;1.10;1.10;;;20.10;93.10;;;;;;5069968;28;20536;-80
2021/09/05 06:32:28;;;;;;;2.80;1.65;;;20.50;93.00;;;;;;5070151;28;20063;-81
2021/09/05 06:34:54;;;;;;;1.45;1.35;;;20.60;92.30;;;;;;5070461;28;20405;-82
2021/09/05 06:37:20;;;;;;;1.23;1.13;;;20.60;91.50;;;;;;5068893;28;20024;-81
2021/09/05 06:39:45;;;;;;;4.85;2.10;;;20.50;91.80;;;;;;5068758;28;20028;-82
2021/09/05 06:42:11;;;;;;;1.48;1.40;;;20.80;92.10;;;;;;5070172;28;20445;-81
2021/09/05 06:44:38;;;;;;;1.20;1.10;;;20.80;92.00;;;;;;5068384;28;20457;-83
2021/09/05 06:47:04;;;;;;;1.00;1.00;;;20.50;91.60;;;;;;5041618;28;20052;-83
2021/09/05 06:49:30;;;;;;;1.00;1.00;;;20.50;91.90;;;;;;5040071;28;20024;-84
2021/09/05 06:51:56;;;;;;;1.23;1.15;;;20.40;92.20;;;;;;5038557;28;20029;-82
2021/09/05 06:54:22;;;;;;;2.67;1.35;;;20.50;92.20;;;;;;5038809;28;20029;-82
2021/09/05 06:56:48;;;;;;;1.10;1.10;;;20.50;92.20;;;;;;5039956;28;20021;-81
2021/09/05 06:59:15;;;;;;;1.25;1.15;;;20.60;92.70;;;;;;5039803;28;20444;-79
2021/09/05 07:01:41;;;;;;;4.05;2.20;;;20.60;93.10;;;;;;5042823;28;20032;-83
2021/09/05 07:04:07;;;;;;;1.65;1.55;;;20.30;93.10;;;;;;5041237;28;20048;-86
2021/09/05 07:06:33;;;;;;;1.00;1.00;;;20.30;93.70;;;;;;5039367;28;20378;-81
2021/09/05 07:08:59;;;;;;;1.40;1.30;;;20.40;93.90;;;;;;5038392;28;20465;-80
2021/09/05 07:11:24;;;;;;;1.95;1.77;;;20.50;93.70;;;;;;5037853;28;20030;-80
2021/09/05 07:13:50;;;;;;;1.63;1.52;;;20.60;93.50;;;;;;5040732;28;20032;-84
2021/09/05 07:16:16;;;;;;;1.00;1.00;;;20.80;93.00;;;;;;5041420;28;20104;-79
2021/09/05 07:18:42;;;;;;;5.72;2.20;;;20.90;92.90;;;;;;5038693;28;20018;-81
2021/09/05 07:21:08;;;;;;;2.60;2.17;;;21.10;92.80;;;;;;5039388;28;20096;-79
2021/09/05 07:23:33;;;;;;;3.85;1.63;;;21.20;93.10;;;;;;5048997;28;20112;-80
2021/09/05 07:26:02;;;;;;;4.28;3.17;;;21.50;92.70;;;;;;5050024;28;20108;-80
2021/09/05 07:28:32;;;;;;;1.73;1.63;;;21.60;91.80;;;;;;5049800;28;20100;-80
2021/09/05 07:31:01;;;;;;;2.27;2.13;;;21.80;91.70;;;;;;5047890;28;20116;-79
2021/09/05 07:33:27;;;;;;;3.00;2.75;;;21.80;91.70;;;;;;5049437;28;20029;-78
2021/09/05 07:35:53;;;;;;;7.13;6.40;;;21.90;91.00;;;;;;5049187;28;20036;-79
2021/09/05 07:38:19;;;;;;;3.42;3.00;;;21.90;91.20;;;;;;5031868;28;20079;-80
2021/09/05 07:40:45;;;;;;;1.50;1.40;;;21.80;91.10;;;;;;5029785;28;20029;-80
2021/09/05 07:43:11;;;;;;;1.40;1.30;;;21.90;91.30;;;;;;5032419;28;20029;-79
2021/09/05 07:45:36;;;;;;;1.15;1.05;;;22.00;91.40;;;;;;5033621;28;20036;-78
2021/09/05 07:48:03;;;;;;;0.95;0.95;;;22.10;90.60;;;;;;5033590;28;20117;-82
2021/09/05 07:50:29;;;;;;;0.80;0.80;;;21.90;90.30;;;;;;5033622;28;20138;-87
2021/09/05 07:52:55;;;;;;;1.25;1.15;;;21.90;90.30;;;;;;5032729;28;20472;-79
2021/09/05 07:55:21;;;;;;;1.55;1.45;;;22.00;89.50;;;;;;5031863;28;20628;-81
2021/09/05 07:57:46;;;;;;;1.63;1.52;;;22.10;89.90;;;;;;5031561;28;20392;-81
2021/09/05 08:00:13;;;;;;;1.20;1.13;;;21.90;87.60;;;;;;5031232;28;20435;-88
2021/09/05 08:02:40;;;;;;;0.80;0.80;;;21.90;88.50;;;;;;5032640;28;20034;-81
2021/09/05 08:05:08;;;;;;;1.70;1.60;;;22.20;90.10;;;;;;5032934;28;20412;-81
2021/09/05 08:07:34;;;;;;;1.08;1.02;;;22.40;89.10;;;;;;5032515;28;20040;-82
2021/09/05 08:09:59;;;;;;;1.00;1.00;;;22.50;88.60;;;;;;5033084;28;20029;-80
2021/09/05 08:12:25;;;;;;;1.35;1.25;;;22.70;87.20;;;;;;5032924;28;20136;-79
2021/09/05 08:14:51;;;;;;;2.10;1.90;;;22.70;83.00;;;;;;5047852;28;20021;-81
2021/09/05 08:17:16;;;;;;;1.38;1.27;;;22.40;81.90;;;;;;5072339;28;20082;-79
2021/09/05 08:19:42;;;;;;;1.80;1.45;;;22.60;83.30;;;;;;5071388;28;20108;-78
2021/09/05 08:22:08;;;;;;;1.70;1.60;;;22.60;83.00;;;;;;5071263;28;20024;-77
2021/09/05 08:24:34;;;;;;;0.93;0.93;;;22.80;82.60;;;;;;5072520;28;20102;-78
2021/09/05 08:26:59;;;;;;;1.67;1.58;;;22.90;82.40;;;;;;5072484;28;20369;-80
2021/09/05 08:29:25;;;;;;;1.15;1.13;;;23.20;81.20;;;;;;5072444;28;20036;-79
2021/09/05 08:31:51;;;;;;;0.90;0.90;;;23.40;80.40;;;;;;5072088;28;20577;-78
2021/09/05 08:34:17;;;;;;;2.17;1.88;;;23.70;79.90;;;;;;5071259;28;20032;-78
2021/09/05 08:36:42;;;;;;;1.33;1.23;;;23.80;79.80;;;;;;5072302;28;20062;-84
2021/09/05 08:39:08;;;;;;;1.25;1.15;;;23.80;79.60;;;;;;5072060;28;20032;-80
2021/09/05 08:41:34;;;;;;;1.30;1.20;;;24.00;79.20;;;;;;5071011;28;20024;-78
2021/09/05 08:44:00;;;;;;;1.02;0.85;;;24.00;79.00;;;;;;5072418;28;20060;-80
2021/09/05 08:46:25;;;;;;;2.75;1.30;;;24.20;79.00;;;;;;5072140;28;20091;-79
2021/09/05 08:48:51;;;;;;;1.52;1.38;;;24.30;77.80;;;;;;5072038;28;20115;-81
2021/09/05 08:51:18;;;;;;;0.70;0.70;;;24.40;77.90;;;;;;5072197;28;20037;-78
2021/09/05 08:53:44;;;;;;;0.90;0.90;;;24.50;77.10;;;;;;5072475;28;20586;-79
2021/09/05 08:56:10;;;;;;;8.80;1.55;;;24.70;77.60;;;;;;5071549;28;20070;-81
2021/09/05 08:58:35;;;;;;;0.80;0.80;;;24.60;75.10;;;;;;5071913;28;20107;-80
2021/09/05 09:01:33;;;;;;;0.68;0.68;;;24.70;74.10;;;;;;5071726;28;20056;-79
2021/09/05 09:04:10;;;;;;;2.05;1.25;;;24.90;74.80;;;;;;5070609;28;20033;-80
2021/09/05 09:06:41;;;;;;;0.73;0.73;;;25.20;72.50;;;;;;5070331;28;20032;-80
2021/09/05 09:09:08;;;;;;;0.60;0.60;;;25.20;73.40;;;;;;5072066;28;20118;-84
2021/09/05 09:11:50;;;;;;;0.60;0.60;;;25.70;73.10;;;;;;5071837;28;20032;-82
2021/09/05 09:14:16;;;;;;;1.13;1.02;;;25.50;70.70;;;;;;5070972;28;20146;-80
2021/09/05 09:16:42;;;;;;;0.85;0.85;;;25.00;70.20;;;;;;5051877;28;20025;-82
2021/09/05 09:19:20;;;;;;;2.25;1.95;;;24.70;71.20;;;;;;5051962;28;20154;-85
2021/09/05 09:21:46;;;;;;;16.52;1.25;;;24.60;72.30;;;;;;5052754;28;20033;-93
2021/09/05 09:24:18;;;;;;;0.80;0.80;;;24.90;72.60;;;;;;5052578;28;20017;-87
2021/09/05 09:27:03;;;;;;;1.27;0.98;;;25.50;72.00;;;;;;5051390;28;20029;-82
2021/09/05 09:29:31;;;;;;;0.70;0.70;;;26.00;70.60;;;;;;5051786;28;20373;-85
2021/09/05 09:32:05;;;;;;;2.28;1.30;;;26.30;69.80;;;;;;5052150;28;20444;-80
2021/09/05 09:34:47;;;;;;;3.13;1.23;;;26.50;69.00;;;;;;5051665;28;20028;-80
2021/09/05 09:37:16;;;;;;;1.52;1.40;;;26.60;70.00;;;;;;5050977;28;20492;-79
2021/09/05 09:39:58;;;;;;;0.63;0.60;;;26.80;69.00;;;;;;5051519;28;20370;-82
2021/09/05 09:42:35;;;;;;;1.02;0.98;;;27.10;68.30;;;;;;5050908;28;20047;-84
2021/09/05 09:45:10;;;;;;;0.77;0.75;;;27.30;67.20;;;;;;5051442;28;20041;-79
2021/09/05 09:47:43;;;;;;;1.35;1.15;;;27.20;66.10;;;;;;5050618;28;20025;-79
2021/09/05 09:50:10;;;;;;;1.85;1.45;;;27.50;65.50;;;;;;5052316;28;20098;-79
2021/09/05 09:52:36;;;;;;;2.20;1.63;;;27.70;66.30;;;;;;5052978;28;20021;-80
2021/09/05 09:55:03;;;;;;;0.43;0.43;;;28.20;64.60;;;;;;5052561;28;20029;-90
2021/09/05 09:57:31;;;;;;;1.23;1.10;;;28.00;62.40;;;;;;5052292;28;20048;-81
2021/09/05 09:59:57;;;;;;;4.00;1.65;;;27.80;63.10;;;;;;5052605;28;20049;-78
2021/09/05 10:02:26;;;;;;;0.95;0.93;;;27.80;63.20;;;;;;5051392;28;20086;-82
2021/09/05 10:04:58;;;;;;;1.00;0.95;;;27.70;63.30;;;;;;5051336;28;20027;-81
2021/09/05 10:07:24;;;;;;;1.25;1.15;;;27.80;62.80;;;;;;5049674;28;20547;-85
2021/09/05 10:09:51;;;;;;;3.53;3.20;;;27.70;62.10;;;;;;5051642;28;20053;-82
2021/09/05 10:12:19;;;;;;;5.47;1.58;;;27.60;62.40;;;;;;5051509;28;20062;-82
2021/09/05 10:14:51;;;;;;;0.70;0.70;;;27.40;63.10;;;;;;5054829;28;20025;-87
2021/09/05 10:17:17;;;;;;;1.90;1.27;;;27.30;62.60;;;;;;5049408;28;20029;-85
2021/09/05 10:19:43;;;;;;;0.52;0.52;;;27.20;62.90;;;;;;5039259;28;20423;-85
2021/09/05 10:22:10;;;;;;;0.90;0.63;;;27.30;63.60;;;;;;5040907;28;20036;-81
2021/09/05 10:24:44;;;;;;;0.68;0.68;;;27.20;63.50;;;;;;5039830;28;20362;-84
2021/09/05 10:27:10;;;;;;;0.68;0.68;;;27.10;63.10;;;;;;5040834;28;20021;-80
2021/09/05 10:29:36;;;;;;;0.60;0.60;;;27.20;63.90;;;;;;5039621;28;20041;-82
2021/09/05 10:32:03;;;;;;;0.47;0.47;;;27.50;64.10;;;;;;5040074;28;20032;-85
2021/09/05 10:34:37;;;;;;;0.43;0.43;;;27.50;63.00;;;;;;5041953;28;20122;-82
2021/09/05 10:37:07;;;;;;;0.63;0.60;;;27.60;63.50;;;;;;5039296;28;20087;-79
2021/09/05 10:39:33;;;;;;;;;;;27.70;63.20;;;;;;5040454;28;20021;-79
2021/09/05 10:42:02;;;;;;;0.60;0.60;;;27.80;62.90;;;;;;5038981;28;20266;-80
2021/09/05 10:44:28;;;;;;;0.60;0.60;;;27.70;63.50;;;;;;5031296;28;20116;-80
2021/09/05 10:46:55;;;;;;;1.38;1.27;;;27.70;62.50;;;;;;5030476;28;20021;-79
2021/09/05 10:49:41;;;;;;;0.68;0.68;;;27.60;62.40;;;;;;5030314;28;20083;-78
2021/09/05 10:52:08;;;;;;;1.27;0.93;;;28.00;63.30;;;;;;5028771;28;20052;-78
2021/09/05 10:54:48;;;;;;;1.63;1.52;;;28.50;62.40;;;;;;5029077;28;20032;-81
2021/09/05 10:57:40;;;;;;;3.03;0.73;;;28.40;60.30;;;;;;5028799;28;20037;-82
2021/09/05 11:00:09;;;;;;;2.22;0.65;;;27.50;61.20;;;;;;5031125;28;20052;-78
2021/09/05 11:03:09;;;;;;;0.55;0.55;;;27.90;62.30;;;;;;5029833;28;20125;-78
2021/09/05 11:05:35;;;;;;;3.50;1.30;;;28.20;61.20;;;;;;5029056;28;20037;-76
2021/09/05 11:08:24;;;;;;;0.82;0.65;;;28.50;60.90;;;;;;5029535;28;20087;-76
2021/09/05 11:10:52;;;;;;;0.88;0.80;;;28.60;60.30;;;;;;5034873;28;20035;-76
2021/09/05 11:13:48;;;;;;;3.83;1.48;;;29.00;60.30;;;;;;5049471;28;20412;-79
2021/09/05 11:16:15;;;;;;;0.47;0.47;;;29.10;60.10;;;;;;5063217;28;20103;-76
2021/09/05 11:18:42;;;;;;;3.50;0.75;;;28.70;59.40;;;;;;5064122;28;20029;-78
2021/09/05 11:21:22;;;;;;;0.30;0.30;;;28.40;58.50;;;;;;5041553;28;20105;-79
2021/09/05 11:23:49;;;;;;;0.80;0.80;;;28.30;58.50;;;;;;5042683;28;20059;-80
2021/09/05 11:26:15;;;;;;;3.20;1.90;;;28.10;58.90;;;;;;5041376;28;20037;-85
2021/09/05 11:28:41;;;;;;;1.08;1.00;;;27.60;59.00;;;;;;5041981;28;20041;-77
2021/09/05 11:31:06;;;;;;;0.73;0.73;;;27.00;59.80;;;;;;5052372;28;20381;-77
2021/09/05 11:33:33;;;;;;;0.95;0.95;;;27.10;61.30;;;;;;5054204;28;20063;-80
2021/09/05 11:36:00;;;;;;;1.13;1.02;;;27.20;60.90;;;;;;5055334;28;20043;-80
2021/09/05 11:38:29;;;;;;;20.27;1.60;;;27.10;61.00;;;;;;5054658;28;20028;-77
2021/09/05 11:40:55;;;;;;;0.80;0.80;;;27.20;61.30;;;;;;5054517;28;20638;-77
2021/09/05 11:43:29;;;;;;;2.42;2.10;;;26.90;62.90;;;;;;5053019;28;20496;-79
2021/09/05 11:45:55;;;;;;;2.45;2.15;;;26.90;63.70;;;;;;5053191;28;20392;-81
2021/09/05 11:48:26;;;;;;;11.90;4.43;;;26.90;63.00;;;;;;5052069;28;20473;-79
2021/09/05 11:50:59;;;;;;;27.42;2.83;;;26.90;63.60;;;;;;5052962;28;20128;-77
2021/09/05 11:53:25;;;;;;;1.73;1.55;;;26.80;64.10;;;;;;5052735;28;20060;-79
2021/09/05 11:55:52;;;;;;;4.43;4.03;;;26.50;65.50;;;;;;5053115;28;20060;-79
2021/09/05 11:58:18;;;;;;;4.93;4.18;;;26.40;65.70;;;;;;5054282;28;20025;-79
2021/09/05 12:00:44;;;;;;;2.47;1.75;;;26.20;66.80;;;;;;5054325;28;20049;-80
2021/09/05 12:03:12;;;;;;;1.63;1.52;;;26.20;66.70;;;;;;5054352;28;20430;-81
2021/09/05 12:05:40;;;;;;;0.75;0.75;;;26.20;66.80;;;;;;5054461;28;20103;-83
2021/09/05 12:08:06;;;;;;;0.80;0.80;;;26.10;68.00;;;;;;5053164;28;20025;-79
2021/09/05 12:10:34;;;;;;;0.68;0.68;;;26.10;67.70;;;;;;5052713;28;20060;-77
2021/09/05 12:13:12;;;;;;;1.30;1.15;;;26.00;68.60;;;;;;5051190;28;20016;-83
2021/09/05 12:15:46;;;;;;;2.35;2.15;;;25.90;70.00;;;;;;5045669;28;20107;-80
2021/09/05 12:18:28;;;;;;;0.60;0.60;;;25.80;71.90;;;;;;5046267;28;20376;-84
2021/09/05 12:20:56;;;;;;;1.05;0.98;;;25.60;73.50;;;;;;5045051;28;20416;-81
2021/09/05 12:23:27;;;;;;;0.77;0.77;;;25.60;74.50;;;;;;5042398;28;20025;-87
2021/09/05 12:25:56;;;;;;;0.50;0.50;;;25.50;74.70;;;;;;5039787;28;20010;-80
2021/09/05 12:28:28;;;;;;;1.40;1.30;;;25.50;74.10;;;;;;5043502;28;20067;-84
2021/09/05 12:31:04;;;;;;;1.50;1.38;;;25.20;74.90;;;;;;5043202;28;20037;-81
2021/09/05 12:33:35;;;;;;;1.48;1.25;;;24.80;78.10;;;;;;5042997;28;20032;-80
2021/09/05 12:36:21;;;;;;;1.25;1.13;;;24.70;77.60;;;;;;5040912;28;20031;-81
2021/09/05 12:38:57;;;;;;;0.70;0.70;;;25.20;77.30;;;;;;5041713;28;20389;-80
2021/09/05 12:41:25;;;;;;;0.60;0.60;;;25.60;76.60;;;;;;5041617;28;20017;-80
2021/09/05 12:43:53;;;;;;;0.63;0.63;;;25.80;74.20;;;;;;5041277;28;20179;-79
2021/09/05 12:46:21;;;;;;;0.50;0.50;;;25.70;76.10;;;;;;5049209;28;20025;-80
2021/09/05 12:48:49;;;;;;;0.60;0.60;;;25.70;74.80;;;;;;5052259;28;20025;-80
2021/09/05 12:51:19;;;;;;;1.40;1.30;;;25.60;74.90;;;;;;5051900;28;20040;-77